Time;durP1;ratioP1;P1;durP2;ratioP2;P2;SDS_P1;SDS_P2;PMS_P1;PMS_P2;Temp;Humidity;BMP_temperature;BMP_pressure;BME280_temperature;BME280_humidity;BME280_pressure;Samples;Min_cycle;Max_cycle;Signal;HPM_P1;HPM_P2
2024/02/10 09:27:39;;;;;;;27.02;14.27;;;;;;;12.30;72.41;98033.50;5373556;23;98908;-77
2024/02/10 09:30:07;;;;;;;17.38;12.20;;;;;;;12.01;72.83;98036.56;4876147;28;97653;-76
2024/02/10 09:32:35;;;;;;;19.50;12.18;;;;;;;11.91;73.17;98033.81;4861106;28;97623;-77
2024/02/10 09:35:03;;;;;;;30.63;16.70;;;;;;;11.90;73.33;98032.16;4858693;28;98031;-77
2024/02/10 09:37:29;;;;;;;31.52;18.13;;;;;;;12.11;72.29;98036.72;4858336;28;101115;-76
2024/02/10 09:39:55;;;;;;;18.02;12.32;;;;;;;12.03;73.46;98036.47;4863318;28;97375;-76
2024/02/10 09:42:21;;;;;;;17.10;11.65;;;;;;;12.02;73.58;98040.88;4865287;28;96800;-76
2024/02/10 09:44:50;;;;;;;21.08;13.10;;;;;;;12.10;73.41;98045.53;4858956;28;97636;-76
2024/02/10 09:47:19;;;;;;;19.15;11.38;;;;;;;12.12;73.57;98047.09;4846577;28;97428;-76
2024/02/10 09:49:45;;;;;;;16.27;11.60;;;;;;;12.06;73.11;98039.69;4855806;28;97268;-74
2024/02/10 09:52:11;;;;;;;21.15;11.57;;;;;;;12.26;73.12;98035.53;4872241;28;97088;-74
2024/02/10 09:54:37;;;;;;;16.83;10.75;;;;;;;13.72;69.81;98026.53;4864691;28;98052;-86
2024/02/10 09:57:11;;;;;;;15.82;10.63;;;;;;;14.79;66.55;98038.53;4869327;28;99069;-87
2024/02/10 09:59:39;;;;;;;26.33;12.77;;;;;;;15.02;64.59;98025.13;4875918;28;97117;-79
2024/02/10 10:02:08;;;;;;;16.38;11.07;;;;;;;15.12;63.58;98036.53;4864757;28;96750;-80
2024/02/10 10:04:34;;;;;;;14.02;9.95;;;;;;;14.81;64.98;98036.59;4860561;28;97785;-80
2024/02/10 10:07:01;;;;;;;13.57;10.27;;;;;;;14.99;64.73;98039.44;4829302;28;100788;-80
2024/02/10 10:09:29;;;;;;;16.33;10.55;;;;;;;15.28;62.89;98031.56;4844276;28;96811;-81
2024/02/10 10:11:55;;;;;;;19.15;10.02;;;;;;;15.23;63.77;98035.56;4860714;28;96883;-83
2024/02/10 10:14:24;;;;;;;18.98;10.52;;;;;;;14.63;64.11;98038.19;4875643;28;101465;-83
2024/02/10 10:16:56;;;;;;;14.27;9.85;;;;;;;14.16;65.67;98037.78;4866135;28;100695;-83
2024/02/10 10:19:26;;;;;;;13.73;9.73;;;;;;;13.94;66.36;98042.25;4865835;28;97418;-83
2024/02/10 10:21:58;;;;;;;17.08;10.02;;;;;;;13.95;66.85;98041.28;4843381;28;97015;-83
2024/02/10 10:24:26;;;;;;;18.92;11.20;;;;;;;13.95;66.72;98038.63;4856900;28;97942;-84
2024/02/10 10:27:02;;;;;;;26.35;16.20;;;;;;;13.78;67.10;98042.66;4854060;28;100443;-85
2024/02/10 10:29:33;;;;;;;12.82;9.40;;;;;;;13.69;67.58;98037.34;4854721;29;97382;-84
2024/02/10 10:32:01;;;;;;;14.30;9.27;;;;;;;13.70;67.49;98045.13;4871268;28;97013;-84
2024/02/10 10:34:31;;;;;;;38.97;17.55;;;;;;;13.66;67.86;98037.59;4851523;28;98258;-84
2024/02/10 10:36:58;;;;;;;89.53;36.47;;;;;;;13.61;68.52;98035.31;4854549;28;100967;-82
2024/02/10 10:39:26;;;;;;;20.83;12.38;;;;;;;13.39;68.85;98036.28;4840658;29;96983;-83
2024/02/10 10:41:54;;;;;;;14.20;8.80;;;;;;;13.39;69.06;98035.44;4858416;28;97251;-84
2024/02/10 10:44:21;;;;;;;14.68;8.85;;;;;;;13.23;69.38;98034.00;4841635;29;100422;-83
2024/02/10 10:46:46;;;;;;;15.27;8.50;;;;;;;13.10;69.89;98034.16;4856163;29;97201;-83
2024/02/10 10:49:12;;;;;;;13.57;9.07;;;;;;;13.03;70.35;98025.09;4854836;29;97631;-83
2024/02/10 10:51:48;;;;;;;13.95;9.48;;;;;;;13.05;70.86;98020.53;4857498;28;97068;-83
2024/02/10 10:54:15;;;;;;;12.18;8.80;;;;;;;13.21;70.12;98022.78;4854706;29;97918;-82
2024/02/10 10:56:41;;;;;;;14.00;9.13;;;;;;;13.04;70.63;98021.50;4858408;29;97819;-83
2024/02/10 10:59:09;;;;;;;12.63;8.63;;;;;;;12.99;70.41;98022.81;4857235;28;97247;-84
2024/02/10 11:01:37;;;;;;;11.65;8.32;;;;;;;13.11;70.46;98027.91;4841091;29;97340;-83
2024/02/10 11:04:02;;;;;;;13.73;9.05;;;;;;;13.14;70.59;98008.41;4856540;28;101808;-84
2024/02/10 11:06:28;;;;;;;12.65;8.77;;;;;;;13.20;70.17;98007.91;4856736;29;101213;-85
2024/02/10 11:08:54;;;;;;;11.35;7.90;;;;;;;13.31;70.07;97988.63;4855239;28;96892;-79
2024/02/10 11:11:20;;;;;;;11.98;7.80;;;;;;;13.49;70.11;97999.44;4854173;29;97413;-80
2024/02/10 11:13:46;;;;;;;11.73;7.90;;;;;;;13.42;69.92;97993.84;4838819;29;101373;-83
2024/02/10 11:16:13;;;;;;;11.43;6.95;;;;;;;13.40;69.99;97989.66;4838231;29;101471;-80
2024/02/10 11:18:39;;;;;;;13.32;8.23;;;;;;;13.58;69.75;97986.34;4840309;28;97575;-80
2024/02/10 11:21:21;;;;;;;15.98;8.07;;;;;;;13.59;69.68;97974.84;4840798;29;96939;-85
2024/02/10 11:24:11;;;;;;;15.20;7.72;;;;;;;13.61;69.34;97972.06;4856740;28;102019;-85
2024/02/10 11:26:39;;;;;;;13.35;8.23;;;;;;;13.64;69.93;97965.69;4843676;28;101151;-85
2024/02/10 11:29:21;;;;;;;13.70;7.63;;;;;;;13.66;70.04;97961.16;4844705;28;96893;-79
2024/02/10 11:31:46;;;;;;;;;;;;;;;13.51;69.25;97965.91;4860949;28;96837;-76
2024/02/10 11:34:19;;;;;;;9.75;6.78;;;;;;;13.52;69.56;97957.84;4859232;28;98145;-76
2024/02/10 11:36:54;;;;;;;12.40;7.35;;;;;;;13.38;70.06;97957.31;4860384;28;101887;-77
2024/02/10 11:39:24;;;;;;;11.48;7.70;;;;;;;13.40;69.94;97950.16;4870629;28;96904;-76
2024/02/10 11:42:00;;;;;;;11.13;7.30;;;;;;;13.54;70.03;97957.75;4856464;28;96944;-76
2024/02/10 11:44:28;;;;;;;14.35;6.82;;;;;;;13.54;69.88;97955.94;4858608;28;97663;-77
2024/02/10 11:46:56;;;;;;;11.73;6.97;;;;;;;13.58;69.32;97957.38;4859691;28;101263;-76
2024/02/10 11:49:23;;;;;;;10.40;6.10;;;;;;;13.50;69.62;97954.53;4865371;28;97345;-77
2024/02/10 11:51:56;;;;;;;11.32;6.57;;;;;;;13.53;70.27;97959.53;4860178;28;96836;-77
2024/02/10 11:54:23;;;;;;;9.93;6.68;;;;;;;13.45;70.27;97951.44;4852269;28;98022;-77
2024/02/10 11:56:50;;;;;;;6.88;5.95;;;;;;;13.33;70.92;97948.03;4876026;28;98714;-76
2024/02/10 11:59:17;;;;;;;9.48;5.95;;;;;;;13.31;70.55;97944.66;4859235;28;96922;-77
2024/02/10 12:01:42;;;;;;;10.38;5.90;;;;;;;13.34;70.90;97949.69;4861073;28;97291;-77
2024/02/10 12:04:11;;;;;;;9.50;5.85;;;;;;;13.44;70.49;97954.19;4859942;28;100906;-78
2024/02/10 12:06:38;;;;;;;7.28;5.90;;;;;;;13.39;70.43;97954.59;4877340;28;98008;-77
2024/02/10 12:09:09;;;;;;;11.02;6.55;;;;;;;13.45;70.67;97954.06;4847655;28;97229;-77
2024/02/10 12:11:34;;;;;;;8.93;6.15;;;;;;;13.43;70.85;97955.97;4839008;28;96922;-78
2024/02/10 12:14:00;;;;;;;8.32;6.43;;;;;;;13.42;71.06;97967.50;4856881;28;100902;-86
2024/02/10 12:16:26;;;;;;;12.77;6.72;;;;;;;13.45;71.49;97956.69;4865969;28;99475;-84
2024/02/10 12:18:52;;;;;;;10.57;6.55;;;;;;;13.45;71.10;97953.25;4832620;28;97142;-83
2024/02/10 12:21:24;;;;;;;8.90;6.30;;;;;;;13.42;71.01;97956.97;4862543;28;96843;-84
2024/02/10 12:23:50;;;;;;;8.80;6.35;;;;;;;13.52;70.59;97955.22;4848545;28;99766;-83
2024/02/10 12:26:17;;;;;;;10.35;6.90;;;;;;;13.53;70.62;97959.53;4864138;28;97423;-77
2024/02/10 12:28:43;;;;;;;10.65;6.50;;;;;;;13.54;71.01;97953.28;4876576;28;97248;-77
2024/02/10 12:31:09;;;;;;;9.43;7.10;;;;;;;13.78;70.41;97963.56;4860857;28;97104;-76
2024/02/10 12:33:34;;;;;;;10.25;6.18;;;;;;;13.82;70.08;97953.63;4840501;28;100820;-78
2024/02/10 12:36:00;;;;;;;11.60;6.65;;;;;;;13.78;70.04;97963.56;4843100;29;101287;-78
2024/02/10 12:38:26;;;;;;;9.20;6.60;;;;;;;13.76;70.65;97954.97;4857975;28;97218;-77
2024/02/10 12:40:55;;;;;;;10.40;6.22;;;;;;;13.74;69.74;97951.63;4855461;28;98952;-76
2024/02/10 12:43:23;;;;;;;8.15;6.32;;;;;;;13.74;69.27;97953.44;4863227;28;97689;-77
2024/02/10 12:45:50;;;;;;;10.65;6.05;;;;;;;13.89;69.02;97956.56;4860604;28;97931;-77
2024/02/10 12:48:16;;;;;;;9.60;7.20;;;;;;;13.87;69.15;97948.78;4849440;28;96981;-77
2024/02/10 12:50:47;;;;;;;8.27;6.30;;;;;;;13.91;69.13;97944.94;4844059;28;96849;-76
2024/02/10 12:53:13;;;;;;;11.02;8.48;;;;;;;14.02;69.30;97949.25;4874542;28;101488;-76
2024/02/10 12:55:44;;;;;;;12.15;8.15;;;;;;;13.95;69.38;97943.69;4842850;28;101144;-78
2024/02/10 12:58:10;;;;;;;11.23;7.77;;;;;;;13.90;69.42;97947.69;4859384;28;97367;-78
2024/02/10 13:00:36;;;;;;;12.75;8.07;;;;;;;13.86;69.56;97946.28;4860657;28;96965;-79
2024/02/10 13:03:02;;;;;;;14.80;9.40;;;;;;;13.94;69.79;97949.94;4872446;28;101098;-78
2024/02/10 13:05:28;;;;;;;14.30;8.38;;;;;;;13.91;69.23;97944.94;4845016;28;98034;-77
2024/02/10 13:07:54;;;;;;;12.95;8.50;;;;;;;13.84;69.79;97945.56;4845413;28;96852;-77
2024/02/10 13:10:20;;;;;;;11.45;8.68;;;;;;;13.81;69.75;97949.28;4860494;28;97209;-78
2024/02/10 13:12:50;;;;;;;14.40;8.70;;;;;;;13.85;70.15;97944.63;4843138;28;96873;-79
2024/02/10 13:15:16;;;;;;;12.90;9.27;;;;;;;13.82;69.78;97940.44;4862972;28;102166;-78
2024/02/10 13:17:41;;;;;;;12.82;9.07;;;;;;;13.86;69.38;97949.75;4845878;28;96835;-77
2024/02/10 13:20:07;;;;;;;13.18;9.50;;;;;;;14.00;69.57;97946.78;4844159;28;96923;-81
2024/02/10 13:22:33;;;;;;;13.85;9.88;;;;;;;13.86;69.75;97943.66;4846559;28;101474;-78
2024/02/10 13:25:00;;;;;;;13.73;9.90;;;;;;;13.79;69.75;97936.25;4849212;28;101477;-77
2024/02/10 13:27:25;;;;;;;17.35;9.95;;;;;;;13.77;70.29;97940.81;4880219;28;96900;-78
2024/02/10 13:29:51;;;;;;;14.77;10.60;;;;;;;13.78;70.11;97933.75;4851691;28;97071;-77
2024/02/10 13:32:16;;;;;;;14.55;10.57;;;;;;;13.78;69.98;97937.22;4861844;28;96948;-78
2024/02/10 13:34:47;;;;;;;14.15;10.18;;;;;;;13.84;69.72;97930.56;4862133;28;97354;-78
2024/02/10 14:01:17;;;;;;;14.73;10.05;;;;;;;13.90;68.91;97945.03;4873984;28;97800;-78
2024/02/10 14:06:34;;;;;;;18.20;9.82;;;;;;;13.95;68.85;97943.69;4852859;28;98438;-79
2024/02/10 14:09:03;;;;;;;15.25;10.23;;;;;;;13.86;69.10;97938.38;4871887;28;97528;-79
2024/02/10 14:11:38;;;;;;;14.35;9.48;;;;;;;13.76;69.40;97943.59;4862140;28;97791;-77
2024/02/10 14:14:04;;;;;;;15.23;9.57;;;;;;;13.78;69.72;97941.66;4842311;28;101236;-76
2024/02/10 14:16:30;;;;;;;14.07;9.30;;;;;;;13.78;69.41;97946.91;4820099;28;101165;-78
2024/02/10 14:19:05;;;;;;;22.27;9.85;;;;;;;13.79;69.36;97943.34;4837809;28;97336;-78
2024/02/10 14:21:38;;;;;;;15.55;10.02;;;;;;;13.89;68.93;97946.84;4871375;28;97529;-77
2024/02/10 14:24:05;;;;;;;13.00;8.73;;;;;;;13.84;69.10;97945.56;4836098;28;97898;-76
2024/02/10 14:26:52;;;;;;;15.93;9.45;;;;;;;13.85;69.43;97942.81;4851905;28;101283;-78
2024/02/10 14:29:33;;;;;;;16.25;10.57;;;;;;;13.82;69.35;97946.53;4844600;28;97178;-88
2024/02/10 14:32:09;;;;;;;31.27;12.15;;;;;;;13.89;69.39;97948.66;4846358;28;97482;-88
2024/02/10 14:34:37;;;;;;;15.77;11.23;;;;;;;13.85;69.61;97956.00;4824137;28;100663;-88
2024/02/10 14:37:26;;;;;;;15.90;11.32;;;;;;;13.89;69.50;97957.41;4871488;28;100424;-86
2024/02/10 14:39:48;;;;;;;18.83;13.75;;;;;;;13.81;70.17;97955.41;4843375;28;97381;-87
2024/02/10 14:42:14;;;;;;;24.30;14.50;;;;;;;13.80;70.10;97963.47;4843764;28;97607;-86
2024/02/10 14:44:41;;;;;;;23.95;14.38;;;;;;;13.73;70.53;97964.91;4859195;28;99690;-85
2024/02/10 14:47:06;;;;;;;22.90;14.38;;;;;;;13.74;70.75;97956.91;4825769;28;101512;-85
2024/02/10 14:49:32;;;;;;;20.63;15.20;;;;;;;13.75;70.67;97968.28;4843268;28;97177;-86
2024/02/10 14:51:57;;;;;;;21.83;14.90;;;;;;;13.78;70.61;97971.47;4840447;29;97900;-86
2024/02/10 14:54:24;;;;;;;21.25;15.77;;;;;;;13.75;70.82;97970.91;4830942;28;99358;-84
2024/02/10 14:56:50;;;;;;;21.50;15.55;;;;;;;13.72;70.76;97961.47;4842828;28;99565;-86
2024/02/10 14:59:17;;;;;;;19.30;13.95;;;;;;;13.60;70.87;97954.59;4848625;28;96876;-86
2024/02/10 15:01:42;;;;;;;21.83;15.02;;;;;;;13.65;70.99;97959.47;4850688;28;97345;-85
2024/02/10 15:04:08;;;;;;;19.80;13.55;;;;;;;13.61;71.01;97952.78;4862877;28;98281;-78
2024/02/10 15:06:34;;;;;;;21.10;13.82;;;;;;;13.56;70.91;97951.38;4866059;28;98247;-84
2024/02/10 15:09:02;;;;;;;20.05;13.10;;;;;;;13.68;69.96;97944.25;4866528;28;97196;-78
2024/02/10 15:11:28;;;;;;;22.27;14.18;;;;;;;13.68;70.20;97943.41;4845657;28;97277;-78
2024/02/10 15:13:54;;;;;;;20.98;13.35;;;;;;;13.57;70.22;97937.22;4844810;28;101296;-80
2024/02/10 15:16:23;;;;;;;23.13;12.93;;;;;;;13.66;70.34;97940.06;4865673;28;97448;-78
2024/02/10 15:18:50;;;;;;;17.67;12.98;;;;;;;13.57;70.18;97942.50;4860603;28;96825;-82
2024/02/10 15:21:20;;;;;;;18.05;12.45;;;;;;;13.62;70.24;97938.66;4847039;28;96858;-78
2024/02/10 15:23:45;;;;;;;18.48;12.85;;;;;;;13.54;69.78;97942.75;4857499;28;100714;-77
2024/02/10 15:26:12;;;;;;;21.60;13.23;;;;;;;13.61;70.09;97939.59;4859102;28;98046;-80
2024/02/10 15:28:38;;;;;;;19.08;12.15;;;;;;;13.56;69.72;97930.28;4841029;28;97555;-78
2024/02/10 15:31:07;;;;;;;18.05;12.68;;;;;;;13.58;69.45;97938.06;4853936;28;97799;-79
2024/02/10 15:33:32;;;;;;;22.83;13.25;;;;;;;13.50;69.53;97936.09;4834930;28;101036;-79
2024/02/10 15:35:58;;;;;;;23.23;12.60;;;;;;;13.49;69.64;97938.84;4848459;28;101224;-78
2024/02/10 15:38:25;;;;;;;17.73;13.00;;;;;;;13.41;69.46;97939.50;4851406;28;98076;-78
2024/02/10 15:40:52;;;;;;;17.27;12.07;;;;;;;13.44;69.66;97947.13;4824937;28;97670;-78
2024/02/10 15:43:19;;;;;;;18.00;11.82;;;;;;;13.33;69.97;97942.75;4824835;28;100870;-78
2024/02/10 15:45:45;;;;;;;17.45;12.25;;;;;;;13.40;70.02;97934.34;4849255;28;98188;-78
2024/02/10 15:48:17;;;;;;;14.45;11.43;;;;;;;13.50;69.52;97932.63;4832199;28;97650;-78
2024/02/10 15:50:43;;;;;;;19.42;12.02;;;;;;;13.53;69.17;97940.25;4849250;28;98006;-77
2024/02/10 15:53:10;;;;;;;18.30;9.93;;;;;;;13.49;69.27;97944.09;4850192;28;97548;-78
2024/02/10 15:55:36;;;;;;;15.55;10.25;;;;;;;13.52;69.09;97942.03;5144795;23;99208;-88
2024/02/10 15:58:04;;;;;;;19.55;11.45;;;;;;;13.35;69.17;97938.19;4890519;28;97430;-86
2024/02/10 16:00:30;;;;;;;22.88;14.63;;;;;;;13.26;69.65;97935.47;4899265;28;96735;-88
2024/02/10 16:02:57;;;;;;;18.35;11.85;;;;;;;13.29;69.53;97946.63;4873567;28;99417;-88
2024/02/10 16:05:23;;;;;;;20.08;11.15;;;;;;;13.16;69.68;97947.72;4890466;28;97155;-88
2024/02/10 16:07:54;;;;;;;18.90;11.50;;;;;;;13.16;70.33;97948.53;5004401;23;97357;-84
2024/02/10 16:10:21;;;;;;;14.90;9.75;;;;;;;13.11;70.42;97953.34;4869926;28;97377;-86
2024/02/10 16:12:50;;;;;;;24.27;11.07;;;;;;;13.07;71.26;97952.75;4863549;28;97884;-85
2024/02/10 16:15:19;;;;;;;16.58;10.35;;;;;;;13.06;70.24;97943.19;4862183;28;100640;-81
2024/02/10 16:17:47;;;;;;;14.80;10.15;;;;;;;13.06;70.58;97952.88;4839831;28;97339;-84
2024/02/10 16:20:20;;;;;;;17.23;11.50;;;;;;;13.10;70.58;97957.78;4870300;28;97482;-78
2024/02/10 16:22:51;;;;;;;16.63;10.32;;;;;;;13.04;70.83;97954.81;4860716;28;101951;-78
2024/02/10 16:25:20;;;;;;;15.38;9.70;;;;;;;13.16;69.91;97955.63;4863841;28;101346;-84
2024/02/10 16:27:52;;;;;;;14.93;10.73;;;;;;;13.17;69.89;97957.28;4854856;28;97008;-85
2024/02/10 16:30:19;;;;;;;18.17;10.75;;;;;;;13.00;70.39;97954.25;4884302;28;97407;-83
2024/02/10 16:32:48;;;;;;;17.40;10.90;;;;;;;13.05;70.25;97953.84;4864734;28;99162;-84
2024/02/10 16:35:23;;;;;;;16.27;9.93;;;;;;;13.14;69.95;97955.72;4852045;28;97057;-83
2024/02/10 16:37:51;;;;;;;21.05;10.07;;;;;;;13.13;70.17;97959.34;4869526;28;97246;-84
2024/02/10 16:40:24;;;;;;;16.25;10.32;;;;;;;13.14;69.83;97958.34;4842516;28;97529;-85
2024/02/10 16:42:54;;;;;;;13.82;10.13;;;;;;;13.14;69.85;97955.72;4887847;28;97199;-84
2024/02/10 16:45:31;;;;;;;15.77;9.43;;;;;;;13.13;69.83;97957.53;4869073;28;99455;-85
2024/02/10 16:47:57;;;;;;;15.52;10.73;;;;;;;13.07;69.67;97957.19;4854915;28;97346;-84
2024/02/10 16:50:23;;;;;;;17.15;11.23;;;;;;;13.12;69.90;97960.31;4857736;28;97358;-86
2024/02/10 16:53:01;;;;;;;17.60;10.80;;;;;;;13.04;70.06;97965.34;5139794;23;99742;-87
2024/02/10 16:55:42;;;;;;;17.40;11.40;;;;;;;12.94;70.23;97959.97;4977151;23;98046;-84
2024/02/10 16:58:12;;;;;;;18.83;11.40;;;;;;;12.95;70.19;97964.31;4872406;28;97208;-84
2024/02/10 17:00:38;;;;;;;18.38;11.85;;;;;;;12.92;70.45;97956.66;4911036;28;97914;-84
2024/02/10 17:03:06;;;;;;;19.60;10.98;;;;;;;12.86;70.46;97959.78;4888825;28;99975;-83
2024/02/10 17:05:33;;;;;;;22.83;12.30;;;;;;;12.87;69.97;97961.44;4897463;28;99246;-82
2024/02/10 17:08:03;;;;;;;17.83;12.70;;;;;;;12.88;70.13;97965.75;5027516;23;96926;-83
2024/02/10 17:10:35;;;;;;;19.05;10.85;;;;;;;12.75;70.31;97979.06;4921328;28;95879;-84
2024/02/10 17:15:51;;;;;;;17.95;11.02;;;;;;;12.74;70.13;97974.78;5159859;23;99592;-86
2024/02/10 17:18:17;;;;;;;14.50;9.77;;;;;;;12.78;70.46;97967.47;4901631;28;96735;-86
2024/02/10 17:20:50;;;;;;;17.67;11.32;;;;;;;12.71;71.17;97961.81;5029078;23;99265;-82
2024/02/10 17:23:35;;;;;;;21.77;11.10;;;;;;;12.76;70.39;97959.66;5249773;23;98198;-84
2024/02/10 17:26:06;;;;;;;19.20;11.70;;;;;;;12.65;70.38;97960.56;4865646;28;97925;-83
2024/02/10 17:28:32;;;;;;;20.52;11.55;;;;;;;12.67;70.56;97961.25;4888363;28;97265;-83
2024/02/10 17:30:58;;;;;;;19.20;10.75;;;;;;;12.69;70.34;97947.97;4889169;28;96771;-83
2024/02/10 17:33:24;;;;;;;21.05;12.60;;;;;;;12.57;70.57;97949.78;4895475;28;99209;-83
2024/02/10 17:35:51;;;;;;;17.33;11.55;;;;;;;12.47;70.52;97948.84;4891716;28;99022;-81
2024/02/10 17:38:17;;;;;;;17.52;11.13;;;;;;;12.46;71.12;97948.00;4872764;28;97335;-82
2024/02/10 17:40:43;;;;;;;17.98;11.13;;;;;;;12.61;70.87;97945.13;4875791;28;97094;-82
2024/02/10 17:43:10;;;;;;;18.75;11.73;;;;;;;12.54;70.83;97943.94;4904356;28;96870;-80
2024/02/10 17:45:36;;;;;;;15.88;10.57;;;;;;;12.44;71.02;97941.19;4886812;28;96568;-83
2024/02/10 17:51:01;;;;;;;16.85;10.63;;;;;;;12.54;70.36;97943.94;5157049;23;97621;-82
2024/02/10 17:53:27;;;;;;;18.40;11.20;;;;;;;12.57;70.40;97939.25;4905691;28;99530;-80
2024/02/10 17:59:31;;;;;;;19.67;12.07;;;;;;;12.22;71.29;97940.25;5747628;23;100135;-81
2024/02/10 18:05:25;;;;;;;20.13;12.27;;;;;;;12.40;70.69;97943.22;5848762;23;100300;-82
2024/02/10 18:07:54;;;;;;;18.85;11.82;;;;;;;12.51;70.75;97938.91;4891011;28;96583;-82
2024/02/10 18:13:54;;;;;;;25.17;12.05;;;;;;;12.50;70.09;97934.59;5716757;23;99483;-83
2024/02/10 18:16:22;;;;;;;27.58;14.07;;;;;;;12.58;70.46;97926.94;4902937;28;99274;-82
2024/02/10 18:22:05;;;;;;;25.60;12.23;;;;;;;12.56;69.65;97929.69;5741908;23;100399;-84
2024/02/10 18:24:35;;;;;;;21.27;13.32;;;;;;;12.64;70.28;97935.16;4934085;28;95865;-84
2024/02/10 18:29:50;;;;;;;21.48;12.25;;;;;;;12.62;70.02;97938.88;5419140;23;98559;-76
2024/02/10 18:32:16;;;;;;;20.48;11.05;;;;;;;12.59;69.58;97932.06;4855442;28;97076;-75
2024/02/10 18:34:43;;;;;;;24.65;11.50;;;;;;;12.54;69.32;97936.06;4872035;28;98258;-76
2024/02/10 18:37:11;;;;;;;22.05;11.75;;;;;;;12.38;69.88;97929.34;4861348;28;97545;-76
2024/02/10 18:39:37;;;;;;;22.27;12.35;;;;;;;12.28;69.90;97933.69;4860407;28;97426;-76
2024/02/10 18:42:03;;;;;;;22.73;12.40;;;;;;;12.26;70.19;97940.00;4843588;28;98009;-78
2024/02/10 18:44:28;;;;;;;22.80;11.20;;;;;;;12.36;70.05;97930.44;4863416;28;97453;-77
2024/02/10 18:46:55;;;;;;;24.70;11.02;;;;;;;12.20;69.99;97923.75;4858711;28;97779;-77
2024/02/10 18:49:22;;;;;;;19.50;11.52;;;;;;;12.32;69.43;97934.28;4852404;28;98162;-76
2024/02/10 18:51:50;;;;;;;19.65;10.52;;;;;;;12.14;70.43;97931.28;4859462;28;97388;-77
2024/02/10 18:54:16;;;;;;;18.92;10.68;;;;;;;12.12;69.99;97928.78;4824454;28;98515;-77
2024/02/10 18:56:42;;;;;;;20.45;11.48;;;;;;;12.15;69.90;97917.19;4859535;28;101069;-78
2024/02/10 18:59:09;;;;;;;31.48;11.65;;;;;;;12.28;69.64;97932.84;4863130;28;97111;-77
2024/02/10 19:01:35;;;;;;;22.42;10.48;;;;;;;12.32;69.29;97932.47;4877183;28;96732;-79
2024/02/10 19:04:07;;;;;;;22.98;12.23;;;;;;;12.15;69.41;97931.16;4863522;28;96893;-78
2024/02/10 19:06:35;;;;;;;18.02;10.82;;;;;;;12.24;69.43;97933.06;4863700;28;97637;-80
2024/02/10 19:09:00;;;;;;;20.77;11.73;;;;;;;12.07;69.80;97932.72;4862534;28;97385;-79
2024/02/10 19:11:27;;;;;;;25.70;11.45;;;;;;;12.06;69.90;97921.38;4863074;28;96825;-78
2024/02/10 19:13:53;;;;;;;21.70;12.50;;;;;;;12.04;69.73;97922.44;4862432;28;97428;-79
2024/02/10 19:16:19;;;;;;;23.70;12.13;;;;;;;12.01;69.77;97918.25;4860283;29;97435;-79
2024/02/10 19:18:52;;;;;;;27.63;12.00;;;;;;;12.16;69.20;97918.88;4843642;28;102202;-79
2024/02/10 19:21:19;;;;;;;21.35;11.45;;;;;;;12.11;69.51;97918.38;4860647;28;96836;-79
2024/02/10 19:23:48;;;;;;;24.10;12.38;;;;;;;12.13;69.59;97919.94;4862868;28;96859;-78
2024/02/10 19:26:17;;;;;;;22.40;11.80;;;;;;;12.09;69.25;97925.56;4870162;28;101643;-79
2024/02/10 19:28:45;;;;;;;22.17;11.88;;;;;;;12.10;69.66;97925.44;4865704;28;101207;-79
2024/02/10 19:31:13;;;;;;;20.23;11.20;;;;;;;12.05;69.34;97924.13;4866128;28;96985;-79
2024/02/10 19:33:38;;;;;;;22.63;13.18;;;;;;;11.94;69.36;97917.91;4878283;28;96756;-79
2024/02/10 19:36:05;;;;;;;25.30;13.10;;;;;;;12.03;69.13;97929.50;4868023;28;101305;-79
2024/02/10 19:38:35;;;;;;;25.08;12.68;;;;;;;11.92;69.36;97935.56;4862613;28;101224;-79
2024/02/10 19:41:02;;;;;;;21.98;11.75;;;;;;;11.86;69.63;97937.84;4860830;28;97068;-80
2024/02/10 19:43:30;;;;;;;20.83;13.25;;;;;;;11.87;69.67;97929.00;4864280;28;96927;-79
2024/02/10 19:45:56;;;;;;;23.60;12.70;;;;;;;11.75;70.06;97933.38;4860552;28;101426;-80
2024/02/10 19:48:23;;;;;;;21.17;12.75;;;;;;;11.85;69.89;97931.75;4866950;28;100970;-79
2024/02/10 19:50:50;;;;;;;26.98;13.35;;;;;;;11.98;69.43;97935.13;4861589;28;96786;-79
2024/02/10 19:53:21;;;;;;;25.05;13.25;;;;;;;11.98;69.42;97929.00;4860418;28;96916;-79
2024/02/10 19:55:47;;;;;;;21.70;12.77;;;;;;;11.81;69.53;97921.56;4861013;28;97583;-79
2024/02/10 19:58:15;;;;;;;25.58;13.57;;;;;;;11.95;69.22;97924.00;4881970;28;97848;-79
2024/02/10 20:00:41;;;;;;;22.65;12.98;;;;;;;11.91;69.22;97925.19;4837837;28;96880;-78
2024/02/10 20:03:07;;;;;;;21.98;13.15;;;;;;;11.83;69.42;97924.91;4843519;28;97306;-76
2024/02/10 20:05:33;;;;;;;26.05;13.68;;;;;;;11.89;68.99;97930.56;4856275;28;100922;-76
2024/02/10 20:07:59;;;;;;;23.65;14.43;;;;;;;11.72;69.46;97926.59;4855159;28;97402;-76
2024/02/10 20:10:25;;;;;;;31.35;15.05;;;;;;;11.59;69.98;97928.47;4872266;28;96997;-76
2024/02/10 20:12:53;;;;;;;26.08;15.20;;;;;;;11.61;70.08;97923.09;4866117;28;97010;-76
2024/02/10 20:15:21;;;;;;;26.75;15.05;;;;;;;11.70;69.63;97914.50;4864646;28;97567;-76
2024/02/10 20:17:51;;;;;;;31.35;15.73;;;;;;;11.80;69.48;97915.47;4862827;28;98098;-76
2024/02/10 20:20:17;;;;;;;27.88;14.57;;;;;;;11.88;68.87;97917.53;4840969;28;97255;-75
2024/02/10 20:22:46;;;;;;;25.90;15.45;;;;;;;11.90;69.24;97918.28;4863592;28;96929;-76
2024/02/10 20:25:15;;;;;;;24.05;13.98;;;;;;;11.83;68.92;97922.28;4851847;28;97481;-76
2024/02/10 20:27:41;;;;;;;30.67;14.57;;;;;;;11.78;69.12;97920.84;4846216;28;98390;-76
2024/02/10 20:30:11;;;;;;;22.58;13.43;;;;;;;11.85;69.13;97917.75;4838934;28;96918;-76
2024/02/10 20:32:37;;;;;;;26.10;13.02;;;;;;;11.81;68.61;97909.28;4872571;28;97206;-76
2024/02/10 20:35:03;;;;;;;23.63;12.98;;;;;;;11.81;68.30;97911.91;4853967;28;99300;-76
2024/02/10 20:37:33;;;;;;;22.80;12.70;;;;;;;11.66;69.06;97906.00;4856819;28;99219;-81
2024/02/10 20:40:00;;;;;;;24.88;12.30;;;;;;;11.64;69.34;97915.00;4867421;28;96803;-80
2024/02/10 20:42:27;;;;;;;25.35;13.00;;;;;;;11.75;69.42;97915.84;4862873;28;96828;-80
2024/02/10 20:44:52;;;;;;;23.98;13.45;;;;;;;11.74;69.06;97911.50;4861606;28;98881;-80
2024/02/10 20:47:18;;;;;;;29.27;13.52;;;;;;;11.82;68.76;97918.81;4862456;28;101768;-80
2024/02/10 20:49:43;;;;;;;21.50;12.88;;;;;;;11.89;68.85;97913.94;4848426;28;96857;-81
2024/02/10 20:52:11;;;;;;;25.13;13.60;;;;;;;11.82;68.58;97913.56;4863328;28;97574;-80
2024/02/10 20:54:37;;;;;;;28.80;14.15;;;;;;;11.74;68.76;97911.50;4850157;28;98628;-81
2024/02/10 20:57:05;;;;;;;25.95;13.57;;;;;;;11.75;69.10;97909.72;4845564;28;98280;-80
2024/02/10 20:59:32;;;;;;;21.45;13.10;;;;;;;11.77;69.10;97913.91;4860392;28;96705;-80
2024/02/10 21:02:03;;;;;;;25.80;14.02;;;;;;;11.54;69.88;97904.31;4865420;28;96739;-80
2024/02/10 21:04:29;;;;;;;24.48;12.88;;;;;;;11.28;70.51;97896.63;4862327;28;97512;-81
2024/02/10 21:06:56;;;;;;;26.50;13.43;;;;;;;11.29;70.64;97893.06;4877928;28;100041;-80
2024/02/10 21:09:23;;;;;;;25.52;13.85;;;;;;;11.23;70.87;97892.69;4875802;28;96930;-80
2024/02/10 21:11:55;;;;;;;23.25;13.63;;;;;;;11.19;71.25;97899.09;4863860;28;97000;-80
2024/02/10 21:14:21;;;;;;;21.15;13.65;;;;;;;11.26;71.09;97901.16;4872923;28;99966;-80
2024/02/10 21:16:47;;;;;;;26.08;13.70;;;;;;;11.34;71.17;97905.81;4875049;28;97569;-78
2024/02/10 21:19:13;;;;;;;23.25;13.93;;;;;;;11.41;70.57;97898.34;4864090;28;96794;-80
2024/02/10 21:21:40;;;;;;;23.42;14.82;;;;;;;11.42;70.58;97897.38;4847086;28;97466;-81
2024/02/10 21:24:07;;;;;;;26.08;14.75;;;;;;;11.34;71.25;97900.56;4865615;28;97657;-75
2024/02/10 21:26:34;;;;;;;23.45;13.25;;;;;;;11.21;71.11;97895.41;4863753;28;97402;-80
2024/02/10 21:29:06;;;;;;;25.92;14.45;;;;;;;11.15;71.25;97893.25;4878041;28;96713;-80
2024/02/10 21:31:35;;;;;;;25.27;14.88;;;;;;;11.15;71.77;97901.13;4863158;28;96999;-76
2024/02/10 21:34:04;;;;;;;23.30;13.68;;;;;;;11.07;71.83;97890.34;4866055;28;98803;-77
2024/02/10 21:36:34;;;;;;;27.58;14.70;;;;;;;11.12;71.99;97893.50;4863186;28;97697;-76
2024/02/10 21:39:10;;;;;;;22.60;15.20;;;;;;;11.07;71.68;97883.31;4855699;28;96907;-77